Air Quality Table

TIMESTAMP NO2 SO2 O3 PM10 PM2.5 CO TEMP HUM AIRPRES WS WD NO BENZENE
2022-06-28 17:00 48.57 µg/m3 0.22 µg/m3 47.04 µg/m3 80.57 µg/m3 27.31 µg/m3 0.44 mg/m3 35.99 °C 18.46 % 1,013.11 mbar 1.91 m/s 135.92 Deg 35.53 µg/m3 3.57 µg/m3
2022-06-28 16:00 43.05 µg/m3 0.17 µg/m3 65.66 µg/m3 85.79 µg/m3 32.56 µg/m3 0.39 mg/m3 33.01 °C 33.5 % 1,013.81 mbar 2.6 m/s 54.53 Deg 37.37 µg/m3 2.68 µg/m3
2022-06-28 15:00 36.1 µg/m3 0.14 µg/m3 55.77 µg/m3 88.35 µg/m3 33.24 µg/m3 0.36 mg/m3 33.06 °C 34.77 % 1,014.13 mbar 2.87 m/s 50.23 Deg 37.93 µg/m3 1.99 µg/m3
2022-06-28 14:00 42.42 µg/m3 0.13 µg/m3 51.52 µg/m3 94.78 µg/m3 34.34 µg/m3 0.35 mg/m3 33.71 °C 32.8 % 1,014.22 mbar 2.85 m/s 43.77 Deg 38.38 µg/m3 3.15 µg/m3
2022-06-28 13:00 52.04 µg/m3 0.39 µg/m3 30.53 µg/m3 102.35 µg/m3 35.58 µg/m3 0.41 mg/m3 34.39 °C 33.49 % 1,014.32 mbar 2.01 m/s 113.9 Deg 58.91 µg/m3 3.36 µg/m3
2022-06-28 12:00 43.55 µg/m3 0.32 µg/m3 34.14 µg/m3 87.22 µg/m3 34.7 µg/m3 0.45 mg/m3 31.33 °C 45.14 % 1,014.64 mbar 2.82 m/s 57.5 Deg 56.63 µg/m3 2.99 µg/m3
2022-06-28 11:00 53.79 µg/m3 0.39 µg/m3 32.74 µg/m3 97.44 µg/m3 35.81 µg/m3 0.44 mg/m3 30.87 °C 40.45 % 1,014.94 mbar 3.01 m/s 56.02 Deg 57.52 µg/m3 2.57 µg/m3
2022-06-28 10:00 52.16 µg/m3 0.48 µg/m3 23.22 µg/m3 100.56 µg/m3 36.21 µg/m3 0.45 mg/m3 31.09 °C 42.48 % 1,014.83 mbar 2.61 m/s 60.43 Deg 66.42 µg/m3 3.2 µg/m3
2022-06-28 09:00 60.58 µg/m3 0.65 µg/m3 19.23 µg/m3 119.18 µg/m3 39.1 µg/m3 0.5 mg/m3 31.55 °C 38.3 % 1,014.81 mbar 1.65 m/s 52.52 Deg 72.37 µg/m3 5.62 µg/m3
2022-06-28 08:00 76.18 µg/m3 1.12 µg/m3 11.84 µg/m3 131.06 µg/m3 42.75 µg/m3 0.7 mg/m3 30.31 °C 38.22 % 1,014.76 mbar 1.34 m/s 51.68 Deg 105.32 µg/m3 10.76 µg/m3
2022-06-28 07:00 71.77 µg/m3 1.65 µg/m3 4.89 µg/m3 173.45 µg/m3 49.28 µg/m3 0.9 mg/m3 29.2 °C 43.89 % 1,014.30 mbar 0.61 m/s 229.97 Deg 146.22 µg/m3 7.51 µg/m3
2022-06-28 06:00 58.74 µg/m3 0.87 µg/m3 3.03 µg/m3 148.15 µg/m3 44.46 µg/m3 0.68 mg/m3 27.56 °C 50.81 % 1,014.05 mbar 0.56 m/s 254.31 Deg 83.23 µg/m3 5.83 µg/m3
2022-06-28 05:00 47.4 µg/m3 0.22 µg/m3 3.4 µg/m3 110.68 µg/m3 37.81 µg/m3 0.32 mg/m3 27.23 °C 48.26 % 1,013.84 mbar 0.59 m/s 246.86 Deg 30.3 µg/m3 5.04 µg/m3
2022-06-28 04:00 23.37 µg/m3 -0.01 µg/m3 21.14 µg/m3 88.96 µg/m3 32.76 µg/m3 0.21 mg/m3 26.8 °C 55.59 % 1,013.45 mbar 0.48 m/s 55.08 Deg 6.12 µg/m3 5.35 µg/m3
2022-06-28 03:00 23.89 µg/m3 0.06 µg/m3 17.7 µg/m3 85.23 µg/m3 31.15 µg/m3 0.2 mg/m3 27.43 °C 49.76 % 1,013.53 mbar 0.55 m/s 98.22 Deg 6.81 µg/m3 3.15 µg/m3
2022-06-28 02:00 20.51 µg/m3 -0.21 µg/m3 33.86 µg/m3 93.58 µg/m3 31.38 µg/m3 0.12 mg/m3 28.63 °C 42.86 % 1,013.91 mbar 0.84 m/s 258.8 Deg 5.86 µg/m3 0.68 µg/m3
2022-06-28 01:00 16.7 µg/m3 -0.2 µg/m3 33.1 µg/m3 93.41 µg/m3 30.8 µg/m3 0.18 mg/m3 28.79 °C 44.37 % 1,014.25 mbar 1.12 m/s 246.43 Deg 1.76 µg/m3 1.15 µg/m3
2022-06-28 00:00 25.39 µg/m3 -0.19 µg/m3 28.03 µg/m3 103.38 µg/m3 31.23 µg/m3 0.18 mg/m3 29.37 °C 38.45 % 1,014.68 mbar 1.08 m/s 231.7 Deg 3.39 µg/m3 1.05 µg/m3
2022-06-27 23:00 27.12 µg/m3 -0.24 µg/m3 29.82 µg/m3 100.57 µg/m3 31.95 µg/m3 0.19 mg/m3 29.64 °C 38.78 % 1,015.01 mbar 1.12 m/s 207.05 Deg 2.54 µg/m3 1.68 µg/m3
2022-06-27 22:00 36.14 µg/m3 -0.15 µg/m3 26.67 µg/m3 104.86 µg/m3 40.3 µg/m3 0.28 mg/m3 29.69 °C 41.32 % 1,015.16 mbar 1.06 m/s 167.13 Deg 6.99 µg/m3 1.21 µg/m3
2022-06-27 21:00 34.77 µg/m3 -0.15 µg/m3 29.07 µg/m3 97.49 µg/m3 32.88 µg/m3 0.23 mg/m3 30.14 °C 40.71 % 1,014.97 mbar 1.08 m/s 176.7 Deg 6.3 µg/m3 1.1 µg/m3
2022-06-27 20:00 33.59 µg/m3 -0.15 µg/m3 30.94 µg/m3 103.36 µg/m3 33.18 µg/m3 0.23 mg/m3 30.62 °C 41.79 % 1,014.91 mbar 1.31 m/s 164.98 Deg 8.93 µg/m3 1.57 µg/m3

It is to be noted that the data is provisional and subject to quality assurance procedures. For validated data kindly refer your request to contact.air@era.org.mt